Detall de PIREP

Printer-friendly versionPDF version

[2015/03/26 09:32:00]
Flight IATA:CT1005
Pilot Number:011
Company ICAO:CAT
Aircraft Type:B738/F
PAX:160
Departing Airport: EHEH
Destination Airport: LHBP
Alternate Airport:LOWW
Online: VATSIM
Route:VELNI Y869 SUMOP L179 MEVEL Z44 HMM UL620 KOMUR M748 ODNEM UM748 RUTOL
Flight Level:F410
No Slew and time accel
No pause
Crash detect
Detect pilot in Cockpit between each 30 and 45 minutes
09:32 Zero fuel Weight: 135992 Lbs, Fuel Weight: 18123 Lbs
09:32 VATSIM:EHEH 260925Z AUTO 19008KT 7000 BR SCT007 BKN009 BKN011 05/04 Q1008 GRN 18007KT 8000 FEW007 SCT009 BECMG SCT012
09:32 VATSIM:LHBP 260900Z 07006KT 030V090 CAVOK 13/08 Q1011 NOSIG
09:34 Parking Brakes off
09:48 Take-off
09:48 Take off Weight: 153446 Lbs
09:48 Wind: 192º @ 010 Knots Heading: 213º
09:48 POS N51º 27´ 00´´ E005º 22´ 28´´
09:48 Gear Up: 161 Knots
09:48 Flaps:5 at 161 Knots
09:50 Flaps:4 at 240 Knots
09:50 Flaps:3 at 244 Knots
09:50 Flaps:2 at 246 Knots
09:50 Flaps:1 at 247 Knots
09:50 Flaps:0 at 247 Knots
10:03 Wind:210º@031 Knots Heading: 041º Ground Speed: 402 Knots Altitude 29639 ft
10:12 TOC
10:12 Fuel Weight: 13293 Lb
10:18 Wind:277º@023 Knots Heading: 103º Ground Speed: 476 Knots Altitude 40849 ft
10:33 Wind:309º@014 Knots Heading: 105º Ground Speed: 470 Knots Altitude 40816 ft
10:48 Wind:235º@016 Knots Heading: 119º Ground Speed: 470 Knots Altitude 40790 ft
11:03 Wind:166º@037 Knots Heading: 136º Ground Speed: 430 Knots Altitude 40856 ft
11:05 TOD
11:05 Fuel Weight: 9262 Lb
11:18 Wind:102º@024 Knots Heading: 182º Ground Speed: 378 Knots Altitude 15508 ft
11:22 Flaps:1 at 273 Knots
11:22 Flaps:2 at 274 Knots
11:25 Flaps:3 at 256 Knots
11:25 Flaps:4 at 252 Knots
11:26 Flaps:5 at 219 Knots
11:26 Flaps:6 at 193 Knots
11:26 Gear Down: 179 Knots
11:27 Flaps:7 at 173 Knots
11:27 Flaps:8 at 163 Knots
11:31 TouchDown:Rate -236 ft/min Speed: 127 Knots
11:32 VATSIM:LHBP 261100Z 10008KT CAVOK 16/08 Q1010 NOSIG
11:32 Land
11:32 Wind:098º@008 Knots
11:32 Heading: 136º
11:32 Flight Duration: 01:44
11:32 Landing Weight: 143778 Lbs
11:32 POS N47º 26´ 06´´ E019º 16´ 26´´
11:35 Parking brakes on
11:35 Block to Block Duration: 02:01
11:35 Final Fuel: 7438 Lbls
11:35 Spent Fuel: 10685 Lbls
11:35 Flight Length: 693 NM
11:35 TOD Land Length: 143 NM

Exportar CSV

Powered by Drupal - Modified by Danger4k